Time;durP1;ratioP1;P1;durP2;ratioP2;P2;SDS_P1;SDS_P2;PMS_P1;PMS_P2;Temp;Humidity;BMP_temperature;BMP_pressure;BME280_temperature;BME280_humidity;BME280_pressure;Samples;Min_cycle;Max_cycle;Signal;HPM_P1;HPM_P2
2023/05/04 00:00:06;;;;;;;3.65;2.40;;;;;;;14.42;42.60;97657.88;4904516;28;20612;-76
2023/05/04 00:02:32;;;;;;;3.50;1.75;;;;;;;14.37;42.18;97650.78;4930290;28;20543;-76
2023/05/04 00:04:57;;;;;;;2.08;1.67;;;;;;;14.41;42.27;97656.31;4912074;28;20178;-77
2023/05/04 00:07:23;;;;;;;3.97;1.83;;;;;;;14.37;41.85;97656.03;4939487;28;20272;-76
2023/05/04 00:09:49;;;;;;;2.45;1.73;;;;;;;14.52;41.88;97644.03;4921209;28;20385;-75
2023/05/04 00:12:15;;;;;;;2.72;1.73;;;;;;;14.50;41.98;97654.00;4903124;28;20636;-76
2023/05/04 00:14:40;;;;;;;4.25;1.70;;;;;;;14.40;42.53;97637.19;4942127;28;20199;-77
2023/05/04 00:17:06;;;;;;;2.58;2.08;;;;;;;14.46;41.51;97643.22;4922513;28;20214;-77
2023/05/04 00:19:33;;;;;;;2.65;1.73;;;;;;;14.52;42.09;97642.19;4923010;28;20168;-75
2023/05/04 00:21:59;;;;;;;4.28;1.73;;;;;;;14.43;42.07;97634.06;4922496;28;20680;-75
2023/05/04 00:24:25;;;;;;;2.78;1.50;;;;;;;14.45;41.86;97638.25;4935197;28;20213;-76
2023/05/04 00:26:50;;;;;;;2.80;1.58;;;;;;;14.41;41.83;97620.44;4919052;28;20199;-77
2023/05/04 00:29:16;;;;;;;2.33;1.88;;;;;;;14.42;41.99;97632.47;4923066;28;20248;-75
2023/05/04 00:31:41;;;;;;;1.55;1.23;;;;;;;14.42;41.84;97632.47;4906788;28;20365;-75
2023/05/04 00:34:07;;;;;;;2.80;1.45;;;;;;;14.41;42.10;97637.97;4939681;28;20478;-76
2023/05/04 00:36:33;;;;;;;2.85;1.90;;;;;;;14.40;42.32;97631.94;4935488;28;20287;-75
2023/05/04 00:38:58;;;;;;;2.70;2.10;;;;;;;14.33;41.89;97626.16;4906978;28;20640;-77
2023/05/04 00:41:23;;;;;;;2.80;1.90;;;;;;;14.34;41.92;97627.75;4923862;28;20267;-76
2023/05/04 00:43:49;;;;;;;2.50;2.00;;;;;;;14.39;42.23;97624.34;4942302;28;20323;-76
2023/05/04 00:46:15;;;;;;;3.10;1.67;;;;;;;14.34;41.90;97613.84;4946246;28;20535;-76
2023/05/04 00:48:41;;;;;;;2.92;1.65;;;;;;;14.48;41.70;97624.63;4945559;28;20225;-75
2023/05/04 00:51:07;;;;;;;2.20;1.55;;;;;;;14.48;41.31;97629.84;4944845;28;20557;-77
2023/05/04 00:53:34;;;;;;;3.95;1.70;;;;;;;14.49;40.97;97634.84;4931261;28;20715;-77
2023/05/04 00:56:00;;;;;;;1.98;1.50;;;;;;;14.56;41.13;97629.38;4912861;28;20366;-77
2023/05/04 00:58:26;;;;;;;2.38;1.70;;;;;;;14.59;41.06;97621.81;4914199;28;20181;-77
2023/05/04 01:00:51;;;;;;;3.83;1.67;;;;;;;14.49;41.11;97606.03;4904482;28;20657;-76
2023/05/04 01:03:17;;;;;;;3.10;1.90;;;;;;;14.53;41.22;97617.59;4944938;23;20305;-81
2023/05/04 01:05:52;;;;;;;3.88;1.88;;;;;;;14.56;40.97;97606.56;4944526;28;20548;-81
2023/05/04 01:08:20;;;;;;;2.47;1.48;;;;;;;14.54;41.36;97615.75;4945281;28;20192;-81
2023/05/04 01:10:57;;;;;;;2.08;1.60;;;;;;;14.53;41.15;97614.97;4929267;28;20386;-81
2023/05/04 01:13:23;;;;;;;2.42;1.70;;;;;;;14.46;41.49;97600.50;4935043;28;20334;-81
2023/05/04 01:15:49;;;;;;;2.72;1.92;;;;;;;14.46;41.18;97606.53;4940143;28;20311;-81
2023/05/04 01:18:15;;;;;;;2.33;1.73;;;;;;;14.39;40.99;97598.94;4939334;28;20267;-81
2023/05/04 01:20:41;;;;;;;4.15;2.05;;;;;;;14.48;41.06;97608.91;4938168;28;20667;-82
2023/05/04 01:23:06;;;;;;;2.63;1.55;;;;;;;14.43;41.39;97602.63;4922981;28;20161;-81
2023/05/04 01:25:37;;;;;;;2.58;1.75;;;;;;;14.39;41.15;97604.19;4931041;28;20272;-82
2023/05/04 01:28:10;;;;;;;2.25;1.70;;;;;;;14.43;40.92;97607.06;4942136;28;20166;-80
2023/05/04 01:30:42;;;;;;;3.00;1.88;;;;;;;14.41;41.47;97603.91;4940550;28;20715;-82
2023/05/04 01:33:08;;;;;;;2.55;2.05;;;;;;;14.37;41.57;97603.63;4940445;28;20183;-81
2023/05/04 01:35:34;;;;;;;2.00;1.70;;;;;;;14.16;41.18;97610.66;4924633;28;20196;-83
2023/05/04 01:38:00;;;;;;;3.47;1.83;;;;;;;14.36;41.26;97598.66;4940103;28;20669;-81
2023/05/04 01:40:25;;;;;;;4.50;1.90;;;;;;;14.46;41.16;97611.00;4923341;28;20238;-80
2023/05/04 01:42:51;;;;;;;3.45;1.80;;;;;;;14.42;40.95;97603.66;4924245;28;20630;-80
2023/05/04 01:45:20;;;;;;;2.30;1.67;;;;;;;14.37;41.74;97608.09;4922226;28;20207;-81
2023/05/04 01:47:45;;;;;;;3.05;2.00;;;;;;;14.34;42.03;97598.94;4943258;28;20200;-81
2023/05/04 01:50:11;;;;;;;2.30;1.75;;;;;;;14.27;41.94;97592.34;4944431;28;20164;-80
2023/05/04 01:52:36;;;;;;;2.30;1.75;;;;;;;14.27;41.41;97598.38;4944619;28;20192;-80
2023/05/04 01:55:02;;;;;;;2.97;1.77;;;;;;;14.21;41.71;97591.56;4908945;28;20207;-80
2023/05/04 01:57:27;;;;;;;2.47;1.80;;;;;;;14.16;41.61;97596.78;4926230;28;20353;-81
2023/05/04 01:59:53;;;;;;;3.53;2.00;;;;;;;14.09;42.25;97589.16;4914747;28;20351;-81
2023/05/04 02:02:18;;;;;;;3.92;1.80;;;;;;;14.02;42.21;97581.53;4930628;28;20320;-80
2023/05/04 02:04:43;;;;;;;4.65;2.00;;;;;;;14.02;41.96;97588.59;4948297;28;20288;-81
2023/05/04 02:07:09;;;;;;;3.25;2.13;;;;;;;13.97;42.52;97594.59;4931315;28;20655;-80
2023/05/04 02:09:35;;;;;;;3.72;1.90;;;;;;;13.95;42.74;97593.28;4963230;28;20198;-80
2023/05/04 02:12:03;;;;;;;2.17;1.67;;;;;;;13.96;42.06;97593.00;4932673;28;20186;-81
2023/05/04 02:14:29;;;;;;;2.30;1.90;;;;;;;13.91;41.94;97587.75;4928335;28;20730;-80
2023/05/04 02:16:54;;;;;;;2.97;2.15;;;;;;;13.95;42.57;97583.59;4946695;28;20258;-81
2023/05/04 02:19:20;;;;;;;2.08;1.85;;;;;;;13.92;42.62;97578.88;4943383;28;20252;-81
2023/05/04 02:21:46;;;;;;;3.65;1.83;;;;;;;14.01;42.25;97568.69;4931159;28;20389;-81
2023/05/04 02:24:12;;;;;;;4.00;2.30;;;;;;;13.81;42.65;97575.44;4926831;28;20245;-80
2023/05/04 02:26:37;;;;;;;3.25;1.80;;;;;;;13.82;42.13;97571.75;4930218;28;20246;-80
2023/05/04 02:29:04;;;;;;;3.58;1.58;;;;;;;13.84;42.32;97571.50;4926065;28;21746;-80
2023/05/04 02:31:30;;;;;;;3.60;1.90;;;;;;;13.76;42.15;97561.50;4935657;28;20195;-81
2023/05/04 02:33:55;;;;;;;2.50;1.88;;;;;;;13.81;42.18;97566.78;4960774;28;20087;-81
2023/05/04 02:36:21;;;;;;;2.47;1.90;;;;;;;13.82;42.44;97568.34;4931502;28;20613;-81
2023/05/04 02:38:46;;;;;;;2.80;1.83;;;;;;;13.76;42.64;97564.94;4932834;28;20188;-81
2023/05/04 02:41:12;;;;;;;6.22;2.10;;;;;;;13.73;42.60;97568.06;4931752;28;20191;-82
2023/05/04 02:43:37;;;;;;;2.22;1.65;;;;;;;13.74;42.99;97566.22;4947757;28;20199;-81
2023/05/04 02:46:02;;;;;;;4.15;1.70;;;;;;;13.76;42.75;97564.94;4947593;28;20194;-81
2023/05/04 02:48:28;;;;;;;2.63;1.90;;;;;;;13.71;42.66;97564.91;4947253;28;20203;-81
2023/05/04 02:50:53;;;;;;;2.70;1.52;;;;;;;13.72;42.26;97563.84;4942855;28;20192;-81
2023/05/04 02:53:21;;;;;;;2.00;1.73;;;;;;;13.74;42.28;97553.91;4931071;28;20469;-80
2023/05/04 02:55:47;;;;;;;2.40;1.65;;;;;;;13.75;41.89;97559.97;4951463;28;20264;-80
2023/05/04 02:58:12;;;;;;;3.10;2.15;;;;;;;13.78;42.50;97556.84;4932645;28;20750;-81
2023/05/04 03:00:38;;;;;;;2.00;1.73;;;;;;;13.74;42.09;97558.38;4932031;28;20202;-81
2023/05/04 03:03:03;;;;;;;2.63;1.67;;;;;;;13.76;42.28;97566.75;4946508;28;20325;-81
2023/05/04 03:05:28;;;;;;;2.55;1.88;;;;;;;13.74;42.33;97559.16;4957412;28;20569;-80
2023/05/04 03:07:54;;;;;;;3.42;1.75;;;;;;;13.72;42.34;97556.00;4926740;28;20511;-79
2023/05/04 03:10:20;;;;;;;3.13;1.75;;;;;;;13.65;42.33;97556.22;4946409;28;20422;-80
2023/05/04 03:12:46;;;;;;;1.67;1.40;;;;;;;13.64;41.88;97551.25;4954886;28;20060;-81
2023/05/04 03:15:11;;;;;;;2.38;1.58;;;;;;;13.64;42.04;97546.81;4948411;28;20194;-81
2023/05/04 03:17:37;;;;;;;1.90;1.65;;;;;;;13.62;42.44;97537.66;4941846;28;20280;-81
2023/05/04 03:20:03;;;;;;;2.38;1.65;;;;;;;13.63;42.84;97537.41;4949257;28;20440;-81
2023/05/04 03:22:28;;;;;;;2.92;2.10;;;;;;;13.65;43.20;97545.00;4945171;28;20210;-80
2023/05/04 03:24:54;;;;;;;3.53;2.42;;;;;;;13.60;42.96;97545.75;4943932;28;20190;-80
2023/05/04 03:27:19;;;;;;;3.20;2.22;;;;;;;13.56;43.34;97541.28;4949043;28;20645;-80
2023/05/04 03:29:45;;;;;;;3.00;2.20;;;;;;;13.53;43.79;97541.78;4929145;28;20467;-81
2023/05/04 03:32:11;;;;;;;4.50;2.13;;;;;;;13.52;44.18;97535.78;4945745;28;20559;-81
2023/05/04 03:34:37;;;;;;;4.90;2.40;;;;;;;13.45;43.53;97532.59;4946636;28;20199;-79
2023/05/04 03:37:02;;;;;;;3.65;2.15;;;;;;;13.45;43.94;97529.97;4944430;28;20380;-80
2023/05/04 03:39:28;;;;;;;3.28;1.83;;;;;;;13.42;43.63;97526.06;4950208;28;20191;-81
2023/05/04 03:41:54;;;;;;;3.35;3.00;;;;;;;13.44;43.89;97529.19;4947427;28;20513;-81
2023/05/04 03:44:19;;;;;;;3.70;3.30;;;;;;;13.45;43.56;97529.97;4932370;28;20442;-81
2023/05/04 03:46:45;;;;;;;3.33;2.75;;;;;;;13.44;43.81;97528.41;4932898;28;20395;-80
2023/05/04 03:49:10;;;;;;;2.60;1.92;;;;;;;13.36;43.72;97534.13;4964605;28;20168;-80
2023/05/04 03:51:36;;;;;;;3.53;2.40;;;;;;;13.36;43.79;97529.66;4931980;28;20697;-81
2023/05/04 03:54:01;;;;;;;4.25;2.33;;;;;;;13.40;43.91;97532.56;4948475;28;20200;-81
2023/05/04 03:56:27;;;;;;;4.15;2.60;;;;;;;13.45;44.15;97536.00;4962970;28;20266;-82
2023/05/04 03:58:52;;;;;;;2.35;1.90;;;;;;;13.45;44.07;97543.06;4964308;28;20275;-80
2023/05/04 04:01:18;;;;;;;3.00;2.17;;;;;;;13.43;44.28;97548.53;4932350;28;20573;-81
2023/05/04 04:03:43;;;;;;;2.47;2.25;;;;;;;13.42;43.98;97540.97;4948117;28;20218;-80
2023/05/04 04:06:09;;;;;;;2.60;2.13;;;;;;;13.36;44.02;97537.50;4949693;28;21710;-80
2023/05/04 04:08:35;;;;;;;2.42;1.88;;;;;;;13.37;44.97;97551.41;4947116;28;20202;-81
2023/05/04 04:11:01;;;;;;;4.13;2.78;;;;;;;13.29;45.24;97537.69;4963120;28;20397;-80
2023/05/04 04:13:26;;;;;;;3.28;2.15;;;;;;;13.22;44.88;97537.13;4946653;28;20392;-80
2023/05/04 04:15:52;;;;;;;2.33;2.10;;;;;;;13.22;45.15;97534.53;4945579;28;20494;-80
2023/05/04 04:18:18;;;;;;;2.92;2.00;;;;;;;13.22;45.49;97539.75;4964064;28;20555;-80
2023/05/04 04:20:44;;;;;;;2.55;1.88;;;;;;;13.13;44.96;97536.03;4964664;28;20458;-80
2023/05/04 04:23:10;;;;;;;4.35;2.83;;;;;;;13.03;45.55;97538.59;4947308;28;20183;-80
2023/05/04 04:25:36;;;;;;;6.00;4.05;;;;;;;13.03;45.07;97544.59;4961402;28;20028;-80
2023/05/04 04:28:04;;;;;;;6.82;3.40;;;;;;;13.01;45.34;97549.28;4966348;28;20429;-80
2023/05/04 04:30:29;;;;;;;3.10;2.70;;;;;;;12.95;46.03;97546.88;4965695;28;20184;-81
2023/05/04 04:32:56;;;;;;;2.85;2.33;;;;;;;12.88;46.68;97536.66;4956711;28;20439;-80
2023/05/04 04:35:22;;;;;;;4.50;2.80;;;;;;;12.92;46.43;97541.13;4952134;28;20190;-81
2023/05/04 04:37:48;;;;;;;4.65;2.78;;;;;;;12.83;46.65;97540.00;4963478;28;20435;-81
2023/05/04 04:40:14;;;;;;;3.97;2.60;;;;;;;12.80;46.97;97543.13;4935296;28;20133;-81
2023/05/04 04:42:40;;;;;;;3.40;2.65;;;;;;;12.66;48.00;97528.88;4937384;28;20257;-82
2023/05/04 04:45:07;;;;;;;3.38;2.50;;;;;;;12.65;47.61;97537.78;4950056;28;20227;-81
2023/05/04 04:47:32;;;;;;;4.55;3.03;;;;;;;12.65;47.97;97548.22;4968872;28;20316;-81
2023/05/04 04:49:58;;;;;;;4.75;2.53;;;;;;;12.64;47.67;97549.25;4935733;28;20057;-81
2023/05/04 04:52:24;;;;;;;4.90;2.30;;;;;;;12.66;47.51;97553.22;4950053;28;20519;-80
2023/05/04 04:54:50;;;;;;;4.03;2.13;;;;;;;12.54;47.71;97545.53;4951260;28;20375;-80
2023/05/04 04:57:16;;;;;;;3.78;2.70;;;;;;;12.63;47.73;97552.88;4935707;28;20436;-81
2023/05/04 04:59:42;;;;;;;3.88;2.63;;;;;;;12.60;47.97;97540.34;4952537;28;20435;-81
2023/05/04 05:02:08;;;;;;;3.90;2.78;;;;;;;12.68;47.81;97548.50;4951586;28;20211;-81
2023/05/04 05:04:35;;;;;;;5.25;2.80;;;;;;;12.65;47.43;97543.78;4934016;28;20270;-81
2023/05/04 05:07:00;;;;;;;4.05;2.80;;;;;;;12.62;47.51;97546.88;4930676;28;20281;-81
2023/05/04 05:09:26;;;;;;;3.55;2.50;;;;;;;12.63;48.35;97550.28;4980374;28;20697;-81
2023/05/04 05:11:51;;;;;;;4.38;3.00;;;;;;;12.62;48.55;97548.72;4959573;28;20233;-81
2023/05/04 05:14:17;;;;;;;4.95;3.15;;;;;;;12.66;48.36;97555.00;4966488;28;20314;-82
2023/05/04 05:16:42;;;;;;;3.90;2.50;;;;;;;12.69;48.22;97552.69;4947608;28;20258;-81
2023/05/04 05:19:08;;;;;;;4.60;2.80;;;;;;;12.68;49.19;97551.13;4945104;28;20301;-80
2023/05/04 05:21:33;;;;;;;5.05;3.85;;;;;;;12.55;48.89;97548.91;4929266;28;20097;-80
2023/05/04 05:23:58;;;;;;;6.38;3.17;;;;;;;12.59;49.52;97555.22;4929910;28;20182;-80
2023/05/04 05:26:24;;;;;;;5.65;2.88;;;;;;;12.68;49.00;97548.50;4942335;28;20659;-80
2023/05/04 05:28:50;;;;;;;5.70;3.65;;;;;;;12.80;48.76;97548.34;4928800;28;20033;-81
2023/05/04 05:31:15;;;;;;;5.70;3.05;;;;;;;12.97;49.28;97557.88;4932952;28;20195;-81
2023/05/04 05:33:41;;;;;;;6.22;3.90;;;;;;;12.87;49.18;97553.38;4948193;28;20405;-80
2023/05/04 05:36:07;;;;;;;5.28;3.53;;;;;;;13.00;49.19;97562.59;4965018;28;20378;-81
2023/05/04 05:38:32;;;;;;;5.32;3.05;;;;;;;13.00;48.44;97560.78;4944846;28;20071;-80
2023/05/04 05:40:58;;;;;;;4.90;3.70;;;;;;;13.21;48.46;97556.50;4928875;28;20508;-80
2023/05/04 05:43:24;;;;;;;5.50;3.40;;;;;;;13.46;48.37;97560.31;4962192;28;20417;-81
2023/05/04 05:45:49;;;;;;;4.63;3.53;;;;;;;13.68;48.45;97562.81;4932593;28;20469;-82
2023/05/04 05:48:15;;;;;;;4.47;3.08;;;;;;;13.93;47.76;97559.53;4965561;28;20482;-81
2023/05/04 05:50:40;;;;;;;5.38;2.88;;;;;;;14.01;47.59;97563.47;4935020;28;20128;-80
2023/05/04 05:53:06;;;;;;;3.88;3.20;;;;;;;13.89;47.62;97560.28;4953681;28;20218;-80
2023/05/04 05:55:31;;;;;;;4.07;3.30;;;;;;;14.14;47.35;97555.13;4949845;28;20336;-81
2023/05/04 05:58:00;;;;;;;5.18;3.55;;;;;;;14.23;46.73;97550.19;4951271;28;20274;-80
2023/05/04 06:00:25;;;;;;;4.75;2.78;;;;;;;14.36;46.78;97554.13;4932535;28;20465;-80
2023/05/04 06:02:51;;;;;;;3.97;3.33;;;;;;;14.56;47.47;97553.38;4950398;28;20596;-81
2023/05/04 06:05:17;;;;;;;5.22;3.67;;;;;;;14.54;47.19;97560.72;4950839;28;20400;-81
2023/05/04 06:07:42;;;;;;;4.22;3.17;;;;;;;14.78;46.24;97548.69;4945084;28;20191;-80
2023/05/04 06:10:08;;;;;;;4.55;3.30;;;;;;;14.89;47.19;97564.44;4931588;28;20358;-80
2023/05/04 06:12:34;;;;;;;3.92;3.28;;;;;;;14.87;46.86;97556.81;4937724;28;20144;-80
2023/05/04 06:14:59;;;;;;;5.28;3.20;;;;;;;15.13;46.26;97569.91;4967625;28;20063;-80
2023/05/04 06:17:25;;;;;;;4.75;3.67;;;;;;;15.17;46.21;97563.91;4947595;28;20404;-81
2023/05/04 06:19:52;;;;;;;6.60;3.88;;;;;;;15.19;45.66;97552.38;4967691;28;20250;-81
2023/05/04 06:22:18;;;;;;;4.95;3.45;;;;;;;15.37;45.59;97557.06;4935550;28;20331;-80
2023/05/04 06:24:43;;;;;;;5.20;3.83;;;;;;;15.42;45.75;97562.28;4948637;28;20404;-82
2023/05/04 06:27:10;;;;;;;5.05;3.55;;;;;;;15.64;45.08;97550.69;4949220;28;20275;-81
2023/05/04 06:29:37;;;;;;;5.75;3.72;;;;;;;15.81;44.48;97543.28;4949813;28;20318;-81
2023/05/04 06:32:03;;;;;;;5.50;3.33;;;;;;;16.11;44.65;97544.22;4951592;28;20362;-80
2023/05/04 06:34:29;;;;;;;5.40;3.72;;;;;;;16.03;44.53;97542.94;4935150;28;20284;-80
2023/05/04 06:36:54;;;;;;;4.75;4.28;;;;;;;15.94;44.72;97536.69;4968195;28;20083;-80
2023/05/04 06:39:20;;;;;;;6.00;3.90;;;;;;;16.18;44.75;97543.94;4961929;28;20290;-80
2023/05/04 06:41:45;;;;;;;4.63;3.28;;;;;;;16.35;44.84;97540.91;4952300;28;20388;-81
2023/05/04 06:44:10;;;;;;;3.75;3.40;;;;;;;16.56;44.30;97539.72;4942145;28;20240;-80
2023/05/04 06:46:36;;;;;;;6.30;3.60;;;;;;;16.75;43.52;97531.19;4952597;28;20490;-80
2023/05/04 06:49:03;;;;;;;4.32;3.45;;;;;;;16.94;43.40;97521.56;4948896;28;20670;-80
2023/05/04 06:51:29;;;;;;;4.32;3.90;;;;;;;17.03;43.42;97540.16;4962408;28;20025;-81
2023/05/04 06:53:55;;;;;;;6.45;4.13;;;;;;;17.41;42.54;97537.72;4938607;28;20040;-80
2023/05/04 06:56:22;;;;;;;6.13;4.18;;;;;;;17.07;43.40;97535.13;4942851;28;20152;-80
2023/05/04 06:58:49;;;;;;;5.88;3.72;;;;;;;17.26;43.44;97536.03;4933792;28;20431;-80
2023/05/04 07:01:15;;;;;;;4.40;3.70;;;;;;;17.22;42.94;97542.88;4975150;28;20341;-81
2023/05/04 07:03:41;;;;;;;5.10;4.00;;;;;;;17.44;43.28;97541.63;4959730;28;20377;-81
2023/05/04 07:06:07;;;;;;;4.63;3.67;;;;;;;17.85;43.26;97546.44;4950002;28;20323;-81
2023/05/04 07:08:33;;;;;;;5.47;4.22;;;;;;;18.07;42.21;97544.06;4932264;28;20495;-80
2023/05/04 07:10:59;;;;;;;4.28;3.78;;;;;;;18.45;42.48;97538.81;4954478;28;20199;-79
2023/05/04 07:13:24;;;;;;;4.82;4.10;;;;;;;18.59;42.08;97546.00;4945704;28;20199;-80
2023/05/04 07:15:50;;;;;;;6.15;4.30;;;;;;;19.00;41.52;97540.09;4945160;28;20352;-82
2023/05/04 07:18:18;;;;;;;5.07;4.53;;;;;;;19.26;41.12;97535.94;4949033;28;20215;-76
2023/05/04 07:20:43;;;;;;;54.95;8.25;;;;;;;19.60;40.94;97540.09;4942075;28;20651;-80
2023/05/04 07:23:12;;;;;;;8.60;4.55;;;;;;;20.02;39.45;97532.91;4932836;28;20849;-81
2023/05/04 07:25:38;;;;;;;6.55;4.70;;;;;;;20.20;39.83;97536.50;4947004;28;20275;-78
2023/05/04 07:28:06;;;;;;;7.80;5.85;;;;;;;20.46;38.65;97527.19;4978848;28;20487;-78
2023/05/04 07:30:32;;;;;;;5.47;4.97;;;;;;;20.53;39.19;97533.66;4949776;28;20227;-77
2023/05/04 07:32:57;;;;;;;6.65;5.30;;;;;;;20.83;39.10;97530.59;4928202;28;20391;-77
2023/05/04 07:35:23;;;;;;;5.30;4.80;;;;;;;21.04;37.64;97531.66;4950155;28;20214;-79
2023/05/04 07:37:49;;;;;;;4.93;4.43;;;;;;;21.23;38.19;97522.69;4935222;28;20205;-80
2023/05/04 07:40:15;;;;;;;6.35;4.60;;;;;;;21.47;37.88;97512.56;4948774;28;20459;-77
2023/05/04 07:42:41;;;;;;;6.22;4.60;;;;;;;21.57;35.44;97518.66;4949209;28;20025;-78
2023/05/04 07:45:07;;;;;;;4.70;4.30;;;;;;;21.94;36.42;97527.94;4947955;28;20293;-78
2023/05/04 07:47:33;;;;;;;4.88;4.47;;;;;;;22.12;34.79;97518.13;4932276;28;20272;-79
2023/05/04 07:49:59;;;;;;;4.85;4.32;;;;;;;22.22;35.49;97520.47;4967225;28;20211;-78
2023/05/04 07:52:27;;;;;;;4.63;4.22;;;;;;;22.37;34.76;97515.81;4966525;28;20164;-79
2023/05/04 07:54:53;;;;;;;6.28;5.03;;;;;;;22.33;34.37;97509.56;4946868;28;20295;-78
2023/05/04 07:57:19;;;;;;;4.38;3.90;;;;;;;22.29;34.31;97504.09;4946326;28;20553;-78
2023/05/04 07:59:45;;;;;;;5.00;4.55;;;;;;;22.25;34.52;97498.63;4933740;28;20210;-78
2023/05/04 08:02:11;;;;;;;4.65;4.25;;;;;;;22.33;35.66;97506.91;4965198;28;20108;-78
2023/05/04 08:04:36;;;;;;;5.35;4.85;;;;;;;21.86;34.74;97497.66;4944859;28;20283;-78
2023/05/04 08:07:02;;;;;;;5.05;4.20;;;;;;;22.37;35.27;97500.69;4963828;28;20202;-78
2023/05/04 08:09:27;;;;;;;4.28;3.88;;;;;;;22.59;34.05;97496.28;4964037;28;20288;-78
2023/05/04 08:11:53;;;;;;;4.63;4.22;;;;;;;22.47;34.42;97494.28;4918727;28;20406;-79
2023/05/04 08:14:18;;;;;;;4.80;4.40;;;;;;;22.71;33.76;97495.66;4958416;28;20405;-78
2023/05/04 08:16:43;;;;;;;5.10;4.60;;;;;;;22.91;34.93;97489.66;4948388;28;20573;-79
2023/05/04 08:19:10;;;;;;;5.05;4.65;;;;;;;23.00;33.48;97485.09;4947619;28;20211;-77
2023/05/04 08:21:35;;;;;;;4.70;4.22;;;;;;;22.98;32.18;97484.63;4946126;28;20235;-78
2023/05/04 08:24:01;;;;;;;4.25;3.85;;;;;;;23.00;33.17;97494.94;4956854;28;20380;-78
2023/05/04 08:26:27;;;;;;;5.05;4.50;;;;;;;22.84;33.82;97481.38;4950427;28;20408;-79
2023/05/04 08:28:52;;;;;;;4.38;3.97;;;;;;;23.04;34.09;97489.78;4979631;28;20326;-78
2023/05/04 08:31:18;;;;;;;3.92;3.60;;;;;;;23.35;31.71;97473.56;4970146;28;20488;-79
2023/05/04 08:33:45;;;;;;;3.80;3.50;;;;;;;23.46;32.30;97476.63;4969694;28;20401;-80
2023/05/04 08:36:10;;;;;;;3.95;3.65;;;;;;;23.42;30.21;97473.06;4937966;28;20379;-79
2023/05/04 08:38:36;;;;;;;3.28;2.97;;;;;;;23.61;30.74;97476.06;4947473;28;20530;-78
2023/05/04 08:41:05;;;;;;;3.90;3.50;;;;;;;23.56;30.29;97481.59;4939784;28;20152;-79
2023/05/04 08:43:34;;;;;;;3.53;3.00;;;;;;;24.05;31.15;97473.94;4926152;28;20372;-77
2023/05/04 08:45:59;;;;;;;3.75;3.17;;;;;;;24.18;30.25;97482.75;4935630;28;20277;-80
2023/05/04 08:48:25;;;;;;;3.60;3.30;;;;;;;24.44;28.95;97479.09;4933219;28;20191;-78
2023/05/04 08:50:50;;;;;;;3.42;3.13;;;;;;;24.28;27.73;97478.91;4970090;28;20354;-78
2023/05/04 08:53:17;;;;;;;4.63;3.83;;;;;;;24.20;27.40;97475.22;4953023;28;20266;-79
2023/05/04 08:55:46;;;;;;;3.72;3.42;;;;;;;24.55;29.67;97476.81;4970438;28;20249;-80
2023/05/04 08:58:13;;;;;;;3.15;2.95;;;;;;;24.33;28.03;97464.63;4960059;28;20389;-77
2023/05/04 09:00:38;;;;;;;3.20;2.90;;;;;;;24.54;27.98;97468.06;4935122;28;20200;-79
2023/05/04 09:03:09;;;;;;;3.08;2.88;;;;;;;24.56;29.27;97476.50;4940022;28;20396;-78
2023/05/04 09:05:35;;;;;;;3.47;3.17;;;;;;;24.34;29.22;97468.84;4950635;28;20283;-79
2023/05/04 09:08:01;;;;;;;3.15;2.70;;;;;;;24.56;28.68;97471.16;4921540;28;20349;-77
2023/05/04 09:10:26;;;;;;;2.88;2.65;;;;;;;24.75;28.79;97465.34;4939859;28;20056;-77
2023/05/04 09:12:52;;;;;;;2.97;2.75;;;;;;;24.83;28.36;97459.13;4977626;28;20195;-80
2023/05/04 09:15:19;;;;;;;3.10;2.90;;;;;;;24.43;26.17;97459.66;4956889;28;20496;-80
2023/05/04 09:17:54;;;;;;;2.92;2.72;;;;;;;24.38;26.87;97453.78;4933881;28;20332;-79
2023/05/04 09:20:20;;;;;;;2.85;2.65;;;;;;;24.56;26.18;97459.75;4967875;28;20199;-81
2023/05/04 09:22:45;;;;;;;3.58;2.80;;;;;;;24.80;27.58;97449.13;4963470;28;20500;-79
2023/05/04 09:25:12;;;;;;;3.15;2.95;;;;;;;25.20;26.02;97456.50;4948351;28;20355;-79
2023/05/04 09:27:40;;;;;;;2.92;2.72;;;;;;;24.66;26.23;97449.44;4953800;28;20167;-80
2023/05/04 09:30:11;;;;;;;3.08;2.88;;;;;;;25.03;26.75;97460.13;4951374;28;20343;-80
2023/05/04 09:32:48;;;;;;;3.08;2.72;;;;;;;25.10;26.96;97448.94;4938757;28;20333;-80
2023/05/04 09:35:15;;;;;;;3.35;3.00;;;;;;;24.95;26.33;97452.25;4955085;28;20204;-80
2023/05/04 09:37:47;;;;;;;3.22;2.80;;;;;;;25.65;27.83;97452.13;4949927;28;20410;-80
2023/05/04 09:40:14;;;;;;;3.00;2.63;;;;;;;25.66;25.61;97443.03;4957073;28;20184;-80
2023/05/04 09:42:41;;;;;;;2.75;2.55;;;;;;;25.72;25.38;97444.38;4971577;28;20385;-79
2023/05/04 09:45:08;;;;;;;2.80;2.55;;;;;;;25.97;25.24;97449.66;4953861;28;20180;-80
2023/05/04 09:47:40;;;;;;;2.80;2.60;;;;;;;26.50;25.48;97444.19;4942412;28;20269;-80
2023/05/04 09:50:15;;;;;;;2.78;2.60;;;;;;;26.85;26.51;97446.22;4958938;28;20359;-80
2023/05/04 09:52:42;;;;;;;2.45;2.20;;;;;;;27.18;25.55;97442.41;4954078;28;20183;-79
2023/05/04 09:55:11;;;;;;;3.03;2.83;;;;;;;27.29;21.99;97435.44;4958413;28;20287;-80
2023/05/04 09:57:37;;;;;;;2.67;2.58;;;;;;;27.41;23.03;97426.53;4949571;28;20189;-80
2023/05/04 10:00:03;;;;;;;2.92;2.72;;;;;;;27.84;23.44;97425.53;4952108;28;20269;-80
2023/05/04 10:02:31;;;;;;;4.43;2.72;;;;;;;27.45;24.47;97422.03;4945618;28;20461;-79
2023/05/04 10:04:57;;;;;;;2.53;2.42;;;;;;;27.52;21.85;97426.78;4952962;28;20287;-79
2023/05/04 10:07:23;;;;;;;2.00;1.90;;;;;;;27.32;24.00;97416.03;4969250;28;20296;-78
2023/05/04 10:09:49;;;;;;;2.20;2.10;;;;;;;27.25;22.12;97413.19;4931393;28;20033;-80
2023/05/04 10:12:14;;;;;;;2.67;2.47;;;;;;;27.80;25.17;97422.00;4949844;28;20170;-79
2023/05/04 10:14:41;;;;;;;4.63;2.45;;;;;;;27.76;24.10;97418.50;4953076;28;20531;-80
2023/05/04 10:17:20;;;;;;;2.90;2.75;;;;;;;27.49;24.31;97414.09;4933754;28;20126;-80
2023/05/04 10:19:54;;;;;;;2.70;2.47;;;;;;;27.73;23.91;97410.41;4968524;28;20291;-80
2023/05/04 10:22:37;;;;;;;2.78;2.50;;;;;;;27.89;24.16;97413.00;4937732;28;20219;-78
2023/05/04 10:25:33;;;;;;;2.70;2.50;;;;;;;28.35;23.73;97402.41;4961639;28;20214;-80
2023/05/04 10:28:20;;;;;;;3.10;2.90;;;;;;;28.33;23.04;97391.28;4969989;28;20262;-80
2023/05/04 10:30:46;;;;;;;2.50;2.35;;;;;;;28.27;22.96;97388.13;4968077;28;20201;-80
2023/05/04 10:33:12;;;;;;;2.67;2.42;;;;;;;28.45;25.32;97391.13;4970863;28;20210;-78
2023/05/04 10:35:49;;;;;;;2.83;2.58;;;;;;;28.50;23.95;97379.34;4955390;28;20044;-80
2023/05/04 10:38:14;;;;;;;2.67;2.47;;;;;;;28.37;21.65;97374.13;4950923;28;20395;-80
2023/05/04 10:40:40;;;;;;;2.60;2.50;;;;;;;28.32;23.28;97381.69;4936340;28;20273;-79
2023/05/04 10:43:07;;;;;;;2.33;2.22;;;;;;;27.84;22.69;97365.88;4952095;28;20512;-79
2023/05/04 10:45:40;;;;;;;2.88;2.58;;;;;;;28.18;23.84;97372.28;4938948;28;20277;-81
2023/05/04 10:48:07;;;;;;;2.38;2.20;;;;;;;28.55;23.88;97365.69;4943824;28;20522;-80
2023/05/04 10:50:48;;;;;;;3.42;3.15;;;;;;;28.87;23.40;97366.16;4952478;28;20428;-78
2023/05/04 10:53:14;;;;;;;2.65;2.45;;;;;;;29.07;21.82;97366.81;4941171;28;20303;-78
2023/05/04 10:55:44;;;;;;;3.45;2.50;;;;;;;29.17;22.54;97354.75;4948983;28;20359;-79
2023/05/04 10:58:13;;;;;;;2.70;2.50;;;;;;;29.39;22.91;97363.06;4947713;28;20280;-79
2023/05/04 11:00:40;;;;;;;2.78;2.58;;;;;;;28.87;23.54;97357.34;4964293;28;20267;-80
2023/05/04 11:03:06;;;;;;;2.75;2.50;;;;;;;28.86;22.92;97345.09;4946168;28;20068;-80
2023/05/04 11:05:53;;;;;;;2.78;2.60;;;;;;;29.30;25.30;97347.22;4968256;28;20211;-80
2023/05/04 11:08:25;;;;;;;3.13;2.72;;;;;;;29.29;22.97;97348.38;4951670;28;20172;-80
2023/05/04 11:11:05;;;;;;;2.65;2.45;;;;;;;29.48;24.27;97345.56;4952000;28;20378;-79
2023/05/04 11:13:40;;;;;;;2.63;2.53;;;;;;;29.13;24.06;97337.78;4964899;28;20266;-80
2023/05/04 11:16:06;;;;;;;2.70;2.50;;;;;;;29.22;23.70;97346.38;4951101;28;20409;-79
2023/05/04 11:18:33;;;;;;;2.70;2.50;;;;;;;29.13;22.75;97343.94;4931880;28;20605;-78
2023/05/04 11:20:59;;;;;;;2.80;2.60;;;;;;;29.05;25.55;97341.53;4949083;28;20203;-79
2023/05/04 11:23:25;;;;;;;2.92;2.70;;;;;;;28.95;24.96;97348.28;4930120;28;20105;-80
2023/05/04 11:25:52;;;;;;;3.13;2.92;;;;;;;28.75;24.85;97337.66;4952306;28;20277;-81
2023/05/04 11:28:17;;;;;;;2.88;2.67;;;;;;;28.74;25.92;97332.66;4959120;28;20443;-78
2023/05/04 11:30:44;;;;;;;2.78;2.58;;;;;;;28.28;24.26;97335.34;4956033;28;20576;-81